createdAt,value
2023-02-06T00:01:44.543Z,28.55
2023-02-06T00:04:13.197Z,18.42
2023-02-06T00:06:41.820Z,25.63
2023-02-06T00:09:10.281Z,20.95
2023-02-06T00:11:39.110Z,20.92
2023-02-06T00:14:07.614Z,21.50
2023-02-06T00:16:37.564Z,24.77
2023-02-06T00:19:05.967Z,31.00
2023-02-06T00:21:34.664Z,32.70
2023-02-06T00:24:03.687Z,30.20
2023-02-06T00:26:32.525Z,28.60
2023-02-06T00:29:01.045Z,34.80
2023-02-06T00:31:29.653Z,26.00
2023-02-06T00:33:59.299Z,29.90
2023-02-06T00:36:28.207Z,31.33
2023-02-06T00:38:56.542Z,32.30
2023-02-06T00:41:25.027Z,31.33
2023-02-06T00:43:53.278Z,39.85
2023-02-06T00:46:22.369Z,37.45
2023-02-06T00:48:50.689Z,37.00
2023-02-06T00:51:20.504Z,30.35
2023-02-06T00:53:50.974Z,34.63
2023-02-06T00:56:20.568Z,26.77
2023-02-06T00:58:48.862Z,35.95
2023-02-06T01:01:17.674Z,34.30
2023-02-06T01:03:46.061Z,31.75
2023-02-06T01:06:14.999Z,29.25
2023-02-06T01:08:44.709Z,30.52
2023-02-06T01:11:15.326Z,33.33
2023-02-06T01:13:45.027Z,35.17
2023-02-06T01:16:18.673Z,30.95
2023-02-06T01:18:47.549Z,32.30
2023-02-06T01:21:17.664Z,35.05
2023-02-06T01:23:48.796Z,36.13
2023-02-06T01:26:20.326Z,33.00
2023-02-06T01:28:50.280Z,34.30
2023-02-06T01:31:21.221Z,31.67
2023-02-06T01:33:52.250Z,35.92
2023-02-06T01:36:21.635Z,36.45
2023-02-06T01:38:51.441Z,37.05
2023-02-06T01:41:21.666Z,46.25
2023-02-06T01:44:13.257Z,41.35
2023-02-06T01:46:43.244Z,41.85
2023-02-06T01:49:15.246Z,41.10
2023-02-06T01:51:44.057Z,42.17
2023-02-06T01:54:15.613Z,45.53
2023-02-06T01:56:47.517Z,48.53
2023-02-06T01:59:15.912Z,38.88
2023-02-06T02:01:45.056Z,53.67
2023-02-06T02:04:16.616Z,49.28
2023-02-06T02:06:47.426Z,46.35
2023-02-06T02:09:19.095Z,39.22
2023-02-06T02:11:47.744Z,38.80
2023-02-06T02:14:18.106Z,33.03
2023-02-06T02:16:56.488Z,40.15
2023-02-06T02:19:54.802Z,43.75
2023-02-06T02:22:53.051Z,43.05
2023-02-06T02:25:48.904Z,41.45
2023-02-06T02:28:44.490Z,41.03
2023-02-06T02:31:21.648Z,40.38
2023-02-06T02:34:28.944Z,40.88
2023-02-06T02:37:01.732Z,41.58
2023-02-06T02:39:36.174Z,35.40
2023-02-06T02:42:14.715Z,35.80
2023-02-06T02:44:48.571Z,38.00
2023-02-06T02:47:18.553Z,42.85
2023-02-06T02:49:47.352Z,46.27
2023-02-06T02:52:17.240Z,35.83
2023-02-06T02:54:45.867Z,40.88
2023-02-06T02:57:17.478Z,42.90
2023-02-06T02:59:47.903Z,36.35
2023-02-06T03:02:20.284Z,34.37
2023-02-06T03:04:50.822Z,38.35
2023-02-06T03:07:28.296Z,39.47
2023-02-06T03:10:02.965Z,35.00
2023-02-06T03:12:36.574Z,34.92
2023-02-06T03:15:09.007Z,30.02
2023-02-06T03:17:40.437Z,33.28
2023-02-06T03:20:11.012Z,31.85
2023-02-06T03:22:42.261Z,33.22
2023-02-06T03:25:14.254Z,27.10
2023-02-06T03:27:43.877Z,33.10
2023-02-06T03:30:14.163Z,28.67
2023-02-06T03:32:44.544Z,27.63
2023-02-06T03:35:17.533Z,25.05
2023-02-06T03:37:49.179Z,28.60
2023-02-06T03:40:18.569Z,30.88
2023-02-06T03:42:51.660Z,34.00
2023-02-06T03:45:25.771Z,32.33
2023-02-06T03:47:55.848Z,35.30
2023-02-06T03:50:25.106Z,29.95
2023-02-06T03:52:56.716Z,32.78
2023-02-06T03:55:34.781Z,31.58
2023-02-06T03:58:06.912Z,36.75
2023-02-06T04:00:35.811Z,33.97
2023-02-06T04:03:05.117Z,32.13
2023-02-06T04:05:33.918Z,36.63
2023-02-06T04:08:04.123Z,34.70
2023-02-06T04:10:32.824Z,39.47
2023-02-06T04:13:01.304Z,33.88
2023-02-06T04:15:30.063Z,39.25
2023-02-06T04:18:01.133Z,41.30
2023-02-06T04:20:30.911Z,38.58
2023-02-06T04:22:59.497Z,37.60
2023-02-06T04:25:29.699Z,38.45
2023-02-06T04:27:57.877Z,35.58
2023-02-06T04:30:26.443Z,41.05
2023-02-06T04:32:54.722Z,40.67
2023-02-06T04:35:23.191Z,38.47
2023-02-06T04:37:51.451Z,33.65
2023-02-06T04:40:20.190Z,42.20
2023-02-06T04:42:49.941Z,40.90
2023-02-06T04:45:18.435Z,41.03
2023-02-06T04:47:49.732Z,43.15
2023-02-06T04:50:19.614Z,37.58
2023-02-06T04:52:47.844Z,37.03
2023-02-06T04:55:16.517Z,39.00
2023-02-06T04:57:44.867Z,46.03
2023-02-06T05:00:16.476Z,55.22
2023-02-06T05:02:44.689Z,72.32
2023-02-06T05:05:14.252Z,58.72
2023-02-06T05:07:42.458Z,51.22
2023-02-06T05:10:11.574Z,54.55
2023-02-06T05:12:39.940Z,62.55
2023-02-06T05:15:09.241Z,50.78
2023-02-06T05:17:38.912Z,56.50
2023-02-06T05:20:08.489Z,52.83
2023-02-06T05:22:37.756Z,45.15
2023-02-06T05:25:06.974Z,55.25
2023-02-06T05:27:35.264Z,53.08
2023-02-06T05:30:03.890Z,52.17
2023-02-06T05:32:32.123Z,51.72
2023-02-06T05:35:02.003Z,55.25
2023-02-06T05:37:30.327Z,54.28
2023-02-06T05:40:00.056Z,57.00
2023-02-06T05:42:28.535Z,51.28
2023-02-06T05:44:57.101Z,49.83
2023-02-06T05:47:26.036Z,55.45
2023-02-06T05:49:54.938Z,49.97
2023-02-06T05:52:24.659Z,52.95
2023-02-06T05:54:53.241Z,55.03
2023-02-06T05:57:21.556Z,51.63
2023-02-06T05:59:50.230Z,54.70
2023-02-06T06:02:18.792Z,50.60
2023-02-06T06:04:47.511Z,50.13
2023-02-06T06:07:16.394Z,49.65
2023-02-06T06:09:46.820Z,48.35
2023-02-06T06:12:15.150Z,49.90
2023-02-06T06:14:43.870Z,51.42
2023-02-06T06:17:12.145Z,48.60
2023-02-06T06:19:40.667Z,50.97
2023-02-06T06:22:09.254Z,46.05
2023-02-06T06:24:37.934Z,49.80
2023-02-06T06:27:10.674Z,43.47
2023-02-06T06:29:39.468Z,44.25
2023-02-06T06:32:07.895Z,44.28
2023-02-06T06:34:36.584Z,35.88
2023-02-06T06:37:05.059Z,41.33
2023-02-06T06:39:33.685Z,39.50
2023-02-06T06:42:04.441Z,33.13
2023-02-06T06:44:34.409Z,48.72
2023-02-06T06:47:02.580Z,35.90
2023-02-06T06:49:31.204Z,38.70
2023-02-06T06:51:59.781Z,55.35
2023-02-06T06:54:28.220Z,43.38
2023-02-06T06:56:56.611Z,54.70
2023-02-06T06:59:25.401Z,55.92
2023-02-06T07:01:55.179Z,58.55
2023-02-06T07:04:28.575Z,55.28
2023-02-06T07:06:57.106Z,58.22
2023-02-06T07:09:25.838Z,60.13
2023-02-06T07:11:54.287Z,56.33
2023-02-06T07:14:22.769Z,55.42
2023-02-06T07:16:51.084Z,55.30
2023-02-06T07:19:21.439Z,57.67
2023-02-06T07:21:49.870Z,60.35
2023-02-06T07:24:19.075Z,61.03
2023-02-06T07:26:47.361Z,66.95
2023-02-06T07:29:16.229Z,64.15
2023-02-06T07:31:44.534Z,67.25
2023-02-06T07:34:13.685Z,50.33
2023-02-06T07:36:43.639Z,54.35
2023-02-06T07:39:12.135Z,63.07
2023-02-06T07:41:40.396Z,56.78
2023-02-06T07:44:09.062Z,55.03
2023-02-06T07:46:37.251Z,57.50
2023-02-06T07:49:05.805Z,55.22
2023-02-06T07:51:34.059Z,66.85
2023-02-06T07:54:04.030Z,59.38
2023-02-06T07:56:32.705Z,62.10
2023-02-06T07:59:01.462Z,58.58
2023-02-06T08:01:29.950Z,65.90
2023-02-06T08:03:58.763Z,58.45
2023-02-06T08:06:27.650Z,60.45
2023-02-06T08:08:57.211Z,52.60
2023-02-06T08:11:30.248Z,55.95
2023-02-06T08:13:59.417Z,55.78
2023-02-06T08:16:27.802Z,49.67
2023-02-06T08:18:56.334Z,49.38
2023-02-06T08:21:26.144Z,53.47
2023-02-06T08:23:58.903Z,51.22
2023-02-06T08:26:29.875Z,55.55
2023-02-06T08:31:29.472Z,51.50
2023-02-06T08:33:58.247Z,51.65
2023-02-06T08:36:27.039Z,54.15
2023-02-06T08:38:55.768Z,62.53
2023-02-06T08:41:26.309Z,40.20
2023-02-06T08:43:57.867Z,49.10
2023-02-06T08:46:28.413Z,68.63
2023-02-06T08:48:58.732Z,68.25
2023-02-06T08:51:28.063Z,77.30
2023-02-06T08:54:00.221Z,43.38
2023-02-06T08:56:29.589Z,48.08
2023-02-06T08:59:00.586Z,45.65
2023-02-06T09:01:30.887Z,49.47
2023-02-06T09:04:01.073Z,33.80
2023-02-06T09:06:30.785Z,118.70
2023-02-06T09:08:59.586Z,57.67
2023-02-06T09:11:28.624Z,34.08
2023-02-06T09:14:00.409Z,30.00
2023-02-06T09:16:29.909Z,34.90
2023-02-06T09:19:01.474Z,21.73
2023-02-06T09:24:01.432Z,9.68
2023-02-06T09:26:30.910Z,12.10
2023-02-06T09:29:03.256Z,14.45
2023-02-06T09:31:32.285Z,8.60
2023-02-06T09:34:01.452Z,11.60
2023-02-06T09:36:30.790Z,10.93
2023-02-06T09:38:59.567Z,15.35
2023-02-06T09:41:41.818Z,18.38
2023-02-06T09:44:17.218Z,23.42
2023-02-06T09:46:48.318Z,27.38
2023-02-06T09:52:31.402Z,14.40
2023-02-06T09:55:07.193Z,15.27
2023-02-06T09:57:40.532Z,20.25
2023-02-06T10:00:30.598Z,23.08
2023-02-06T10:03:08.515Z,23.75
2023-02-06T10:05:48.140Z,20.23
2023-02-06T10:08:20.900Z,13.23
2023-02-06T10:10:51.992Z,15.93
2023-02-06T10:13:24.214Z,15.68
2023-02-06T10:15:57.950Z,14.93
2023-02-06T10:18:33.543Z,13.38
2023-02-06T10:21:06.109Z,15.70
2023-02-06T10:23:38.862Z,16.13
2023-02-06T10:26:12.475Z,19.85
2023-02-06T10:28:41.821Z,21.88
2023-02-06T10:31:26.822Z,20.83
2023-02-06T10:34:05.828Z,30.60
2023-02-06T10:36:46.784Z,27.27
2023-02-06T10:39:40.385Z,17.30
2023-02-06T10:42:13.730Z,20.90
2023-02-06T10:44:51.042Z,18.98
2023-02-06T10:47:30.473Z,16.50
2023-02-06T10:50:03.301Z,19.73
2023-02-06T10:52:34.665Z,18.80
2023-02-06T10:55:06.653Z,24.35
2023-02-06T10:57:35.629Z,20.83
2023-02-06T11:00:05.963Z,18.40
2023-02-06T11:02:44.506Z,19.52
2023-02-06T11:05:17.533Z,20.05
2023-02-06T11:07:47.903Z,32.45
2023-02-06T11:10:18.812Z,21.42
2023-02-06T11:12:51.452Z,21.48
2023-02-06T11:15:23.852Z,23.95
2023-02-06T11:17:55.062Z,23.55
2023-02-06T11:20:25.378Z,32.35
2023-02-06T11:22:54.033Z,25.92
2023-02-06T11:25:27.414Z,27.33
2023-02-06T11:27:59.234Z,24.75
2023-02-06T11:30:35.005Z,23.27
2023-02-06T11:33:07.625Z,19.55
2023-02-06T11:35:39.713Z,22.25
2023-02-06T11:38:16.220Z,18.73
2023-02-06T11:40:45.170Z,18.30
2023-02-06T11:43:18.972Z,24.33
2023-02-06T11:45:48.699Z,21.60
2023-02-06T11:48:40.730Z,26.17
2023-02-06T11:51:10.497Z,20.42
2023-02-06T11:53:39.601Z,24.30
2023-02-06T11:56:19.063Z,23.33
2023-02-06T11:58:48.457Z,23.48
2023-02-06T12:01:20.482Z,19.58
2023-02-06T12:03:57.777Z,21.55
2023-02-06T12:06:30.742Z,20.05
2023-02-06T12:09:00.598Z,16.13
2023-02-06T12:11:33.401Z,26.65
2023-02-06T12:14:06.270Z,18.83
2023-02-06T12:16:37.995Z,21.05
2023-02-06T12:19:12.613Z,20.83
2023-02-06T12:21:44.186Z,156.40
2023-02-06T12:24:22.301Z,22.40
2023-02-06T12:26:52.263Z,107.15
2023-02-06T12:29:24.828Z,26.23
2023-02-06T12:32:00.022Z,30.80
2023-02-06T12:34:41.654Z,29.88
2023-02-06T12:37:14.519Z,27.65
2023-02-06T12:39:45.506Z,22.45
2023-02-06T12:42:36.371Z,17.83
2023-02-06T12:45:09.417Z,19.38
2023-02-06T12:47:42.711Z,11.75
2023-02-06T12:50:16.805Z,14.20
2023-02-06T12:52:49.141Z,25.30
2023-02-06T12:55:22.587Z,19.92
2023-02-06T12:57:51.090Z,13.88
2023-02-06T13:00:40.884Z,17.98
2023-02-06T13:03:28.445Z,9.73
2023-02-06T13:06:04.657Z,13.07
2023-02-06T13:08:41.568Z,14.70
2023-02-06T13:11:19.161Z,17.08
2023-02-06T13:13:47.642Z,20.90
2023-02-06T13:16:16.424Z,23.58
2023-02-06T13:18:54.698Z,20.08
2023-02-06T13:21:28.785Z,18.20
2023-02-06T13:24:18.105Z,14.65
2023-02-06T13:27:19.994Z,30.95
2023-02-06T13:32:41.073Z,25.00
2023-02-06T13:35:24.354Z,21.15
2023-02-06T13:38:14.714Z,18.25
2023-02-06T13:40:43.762Z,19.48
2023-02-06T13:43:18.784Z,28.60
2023-02-06T13:45:54.124Z,25.85
2023-02-06T13:48:49.701Z,22.20
2023-02-06T13:51:46.944Z,34.90
2023-02-06T13:54:49.139Z,19.30
2023-02-06T13:57:31.191Z,20.15
2023-02-06T14:00:03.373Z,25.75
2023-02-06T14:02:38.130Z,30.65
2023-02-06T14:05:12.467Z,17.08
2023-02-06T14:08:10.446Z,24.35
2023-02-06T14:11:28.736Z,24.25
2023-02-06T14:14:15.178Z,20.48
2023-02-06T14:16:49.803Z,25.23
2023-02-06T14:19:27.700Z,20.27
2023-02-06T14:22:03.433Z,19.77
2023-02-06T14:24:51.844Z,31.45
2023-02-06T14:27:31.199Z,16.00
2023-02-06T14:30:07.556Z,17.58
2023-02-06T14:32:44.341Z,17.70
2023-02-06T14:35:33.041Z,23.48
2023-02-06T14:38:28.809Z,21.77
2023-02-06T14:41:00.745Z,19.08
2023-02-06T14:43:33.105Z,27.55
2023-02-06T14:46:08.068Z,40.72
2023-02-06T14:48:41.849Z,15.93
2023-02-06T14:51:20.787Z,18.08
2023-02-06T14:53:53.862Z,18.77
2023-02-06T14:56:28.220Z,18.90
2023-02-06T14:58:59.004Z,24.67
2023-02-06T15:01:30.274Z,48.28
2023-02-06T15:04:11.067Z,23.73
2023-02-06T15:06:40.990Z,30.70
2023-02-06T15:09:10.239Z,33.55
2023-02-06T15:11:38.597Z,33.00
2023-02-06T15:14:27.687Z,22.17
2023-02-06T15:17:00.966Z,24.35
2023-02-06T15:19:31.339Z,27.20
2023-02-06T15:22:02.255Z,22.95
2023-02-06T15:24:40.564Z,33.40
2023-02-06T15:27:14.007Z,22.80
2023-02-06T15:29:48.288Z,18.65
2023-02-06T15:32:24.277Z,24.90
2023-02-06T15:34:53.122Z,21.20
2023-02-06T15:37:23.802Z,26.02
2023-02-06T15:39:53.420Z,27.50
2023-02-06T15:42:22.834Z,28.70
2023-02-06T15:44:53.606Z,21.88
2023-02-06T15:47:22.186Z,23.03
2023-02-06T15:49:53.295Z,20.75
2023-02-06T15:52:35.225Z,20.25
2023-02-06T15:55:04.954Z,26.52
2023-02-06T15:57:35.550Z,179.27
2023-02-06T16:00:09.823Z,26.55
2023-02-06T16:02:39.220Z,44.78
2023-02-06T16:05:09.213Z,25.85
2023-02-06T16:07:38.773Z,24.38
2023-02-06T16:10:21.665Z,28.02
2023-02-06T16:12:50.960Z,22.77
2023-02-06T16:15:30.316Z,29.83
2023-02-06T16:18:00.160Z,31.55
2023-02-06T16:20:39.872Z,44.20
2023-02-06T16:23:29.886Z,32.45
2023-02-06T16:26:04.988Z,49.35
2023-02-06T16:28:33.298Z,51.45
2023-02-06T16:31:05.503Z,47.38
2023-02-06T16:33:38.440Z,36.88
2023-02-06T16:36:07.858Z,68.85
2023-02-06T16:38:36.148Z,67.80
2023-02-06T16:41:04.984Z,47.15
2023-02-06T16:43:33.456Z,45.33
2023-02-06T16:46:03.350Z,38.63
2023-02-06T16:48:31.750Z,56.03
2023-02-06T16:51:00.588Z,48.28
2023-02-06T16:53:29.492Z,49.05
2023-02-06T16:55:58.037Z,41.53
2023-02-06T16:58:28.574Z,42.33
2023-02-06T17:00:57.332Z,55.03
2023-02-06T17:03:27.413Z,35.97
2023-02-06T17:05:55.975Z,37.88
2023-02-06T17:08:25.684Z,40.50
2023-02-06T17:10:54.386Z,40.60
2023-02-06T17:13:24.833Z,51.95
2023-02-06T17:15:53.682Z,37.50
2023-02-06T17:18:23.749Z,34.53
2023-02-06T17:20:56.330Z,45.78
2023-02-06T17:23:25.612Z,50.75
2023-02-06T17:25:54.225Z,58.70
2023-02-06T17:28:22.920Z,49.50
2023-02-06T17:30:52.193Z,69.40
2023-02-06T17:33:21.092Z,46.55
2023-02-06T17:35:50.123Z,62.80
2023-02-06T17:38:20.173Z,67.40
2023-02-06T17:40:48.877Z,58.10
2023-02-06T17:43:17.414Z,53.60
2023-02-06T17:45:46.140Z,58.83
2023-02-06T17:48:14.740Z,51.80
2023-02-06T17:50:43.819Z,53.00
2023-02-06T17:53:14.200Z,52.17
2023-02-06T17:55:45.299Z,51.67
2023-02-06T17:58:13.560Z,62.90
2023-02-06T18:00:42.157Z,53.83
2023-02-06T18:03:11.541Z,57.00
2023-02-06T18:05:40.335Z,46.88
2023-02-06T18:08:08.782Z,58.00
2023-02-06T18:10:40.712Z,72.97
2023-02-06T18:15:38.946Z,52.17
2023-02-06T18:18:07.377Z,51.75
2023-02-06T18:20:36.711Z,50.85
2023-02-06T18:23:05.292Z,45.72
2023-02-06T18:25:34.193Z,50.13
2023-02-06T18:28:02.878Z,47.38
2023-02-06T18:30:34.285Z,48.78
2023-02-06T18:33:03.210Z,53.85
2023-02-06T18:35:32.213Z,57.55
2023-02-06T18:38:00.735Z,65.60
2023-02-06T18:40:29.544Z,45.72
2023-02-06T18:42:57.793Z,40.70
2023-02-06T18:45:31.277Z,60.88
2023-02-06T18:48:01.423Z,47.10
2023-02-06T18:50:31.774Z,60.20
2023-02-06T18:53:00.129Z,59.35
2023-02-06T18:55:28.898Z,61.40
2023-02-06T18:57:57.215Z,45.88
2023-02-06T19:00:25.924Z,49.00
2023-02-06T19:02:54.232Z,49.05
2023-02-06T19:05:24.710Z,47.92
2023-02-06T19:07:54.213Z,50.05
2023-02-06T19:10:23.253Z,45.40
2023-02-06T19:12:51.617Z,43.92
2023-02-06T19:15:20.645Z,37.38
2023-02-06T19:17:50.437Z,36.97
2023-02-06T19:20:19.788Z,41.28
2023-02-06T19:22:49.507Z,34.55
2023-02-06T19:25:19.379Z,41.07
2023-02-06T19:27:47.783Z,36.47
2023-02-06T19:30:16.566Z,36.20
2023-02-06T19:32:46.187Z,34.33
2023-02-06T19:35:15.574Z,47.60
2023-02-06T19:37:43.753Z,94.35
2023-02-06T19:40:13.787Z,118.70
2023-02-06T19:42:42.190Z,92.15
2023-02-06T19:45:11.014Z,86.35
2023-02-06T19:47:39.458Z,82.78
2023-02-06T19:50:08.745Z,80.10
2023-02-06T19:52:37.033Z,93.20
2023-02-06T19:55:05.826Z,83.18
2023-02-06T19:57:35.548Z,90.28
2023-02-06T20:00:04.844Z,98.82
2023-02-06T20:02:33.228Z,120.93
2023-02-06T20:05:02.734Z,101.60
2023-02-06T20:07:31.830Z,106.25
2023-02-06T20:10:00.602Z,99.45
2023-02-06T20:12:29.243Z,93.25
2023-02-06T20:15:00.584Z,94.13
2023-02-06T20:17:29.270Z,97.72
2023-02-06T20:20:00.044Z,121.10
2023-02-06T20:22:28.921Z,154.85
2023-02-06T20:24:57.486Z,173.68
2023-02-06T20:27:26.589Z,191.55
2023-02-06T20:29:55.205Z,192.40
2023-02-06T20:32:25.240Z,190.75
2023-02-06T20:34:53.805Z,174.38
2023-02-06T20:37:22.544Z,154.43
2023-02-06T20:39:51.078Z,149.43
2023-02-06T20:42:22.353Z,118.18
2023-02-06T20:44:51.783Z,106.47
2023-02-06T20:47:20.093Z,149.82
2023-02-06T20:49:50.482Z,161.68
2023-02-06T20:52:19.234Z,157.73
2023-02-06T20:54:47.823Z,164.60
2023-02-06T20:57:16.437Z,152.40
2023-02-06T20:59:45.066Z,158.93
2023-02-06T21:02:13.507Z,160.07
2023-02-06T21:04:42.386Z,142.05
2023-02-06T21:07:12.396Z,145.75
2023-02-06T21:09:44.616Z,146.23
2023-02-06T21:12:12.952Z,158.38
2023-02-06T21:14:41.933Z,143.43
2023-02-06T21:17:10.565Z,134.73
2023-02-06T21:19:39.298Z,145.60
2023-02-06T21:22:07.489Z,150.27
2023-02-06T21:24:37.776Z,156.00
2023-02-06T21:27:06.225Z,153.15
2023-02-06T21:29:35.077Z,132.98
2023-02-06T21:32:13.375Z,140.35
2023-02-06T21:34:43.070Z,136.07
2023-02-06T21:37:11.899Z,155.23
2023-02-06T21:39:42.204Z,131.50
2023-02-06T21:42:11.559Z,161.65
2023-02-06T21:44:40.102Z,159.48
2023-02-06T21:47:09.936Z,142.85
2023-02-06T21:49:38.799Z,129.37
2023-02-06T21:52:07.416Z,142.35
2023-02-06T21:54:36.186Z,147.20
2023-02-06T21:57:06.077Z,135.10
2023-02-06T21:59:38.256Z,140.27
2023-02-06T22:02:06.612Z,169.93
2023-02-06T22:04:35.363Z,194.27
2023-02-06T22:07:03.697Z,211.48
2023-02-06T22:09:32.292Z,233.13
2023-02-06T22:12:01.740Z,237.80
2023-02-06T22:14:31.661Z,299.98
2023-02-06T22:17:00.103Z,290.52
2023-02-06T22:19:29.375Z,226.02
2023-02-06T22:21:57.786Z,254.85
2023-02-06T22:24:26.582Z,254.23
2023-02-06T22:26:54.919Z,224.73
2023-02-06T22:29:23.409Z,212.63
2023-02-06T22:31:53.021Z,211.50
2023-02-06T22:34:22.230Z,217.27
2023-02-06T22:36:51.767Z,201.05
2023-02-06T22:39:20.876Z,192.30
2023-02-06T22:41:52.558Z,191.77
2023-02-06T22:44:22.096Z,191.25
2023-02-06T22:46:53.971Z,198.95
2023-02-06T22:49:24.633Z,194.65
2023-02-06T22:51:53.524Z,206.20
2023-02-06T22:54:22.164Z,209.02
2023-02-06T22:56:50.648Z,242.48
2023-02-06T22:59:20.645Z,265.10
2023-02-06T23:01:50.872Z,254.30
2023-02-06T23:04:22.756Z,241.60
2023-02-06T23:06:52.137Z,203.95
2023-02-06T23:09:22.500Z,203.82
2023-02-06T23:11:52.075Z,182.88
2023-02-06T23:14:21.042Z,179.55
2023-02-06T23:16:49.944Z,167.80
2023-02-06T23:19:21.352Z,164.10
2023-02-06T23:21:51.452Z,165.50
2023-02-06T23:24:20.469Z,155.43
2023-02-06T23:26:50.665Z,148.43
2023-02-06T23:29:20.459Z,145.70
2023-02-06T23:31:49.558Z,143.45
2023-02-06T23:34:20.513Z,147.70
2023-02-06T23:36:49.127Z,152.35
2023-02-06T23:39:17.836Z,140.98
2023-02-06T23:41:46.257Z,143.80
2023-02-06T23:44:14.818Z,140.90
2023-02-06T23:46:43.335Z,154.63
2023-02-06T23:49:12.232Z,139.40
2023-02-06T23:51:42.246Z,152.40
2023-02-06T23:54:11.313Z,154.95
2023-02-06T23:56:39.926Z,170.85
2023-02-06T23:59:08.647Z,158.32
